La Paloma, Texas
Current Conditions -  °F | °C
As of 6:29 AM on Sunday 21 Dec 2014 (Local Time) from KHRL Reporting Station
Light Rain Light Rain  
Wind Chill: 57°   Ceiling: 4600
Heat Index: 57°   Visibility: 8mi
Dew Point: 55°   Wind: 8mph
Humidity: 94%   Direction: 330°NNW
Pressure: 30.06"   Gusts: NA
Location:  26.1784°N, 97.6678°W
Report Text: KHRL 211229Z 33007KT 8SM -RA SCT011 OVC046 14/13 A3006 RMK AO2 RAB10 P0000
Loading
Personal Weather Stations






























Interactive Weather Map New forecast layout! Learn more

10-Day Weather Forecast

Advertisements
Track Severe Weather on mobile